Time;durP1;ratioP1;P1;durP2;ratioP2;P2;SDS_P1;SDS_P2;PMS_P1;PMS_P2;Temp;Humidity;BMP_temperature;BMP_pressure;BME280_temperature;BME280_humidity;BME280_pressure;Samples;Min_cycle;Max_cycle;Signal;HPM_P1;HPM_P2
2022/04/16 00:01:05;;;;;;;0.98;0.60;;;25.10;41.30;;;;;;4994274;28;20030;-65
2022/04/16 00:03:31;;;;;;;1.83;0.80;;;25.00;41.20;;;;;;4992862;28;20034;-65
2022/04/16 00:05:57;;;;;;;0.90;0.70;;;25.10;41.30;;;;;;4993842;28;20109;-61
2022/04/16 00:08:25;;;;;;;0.88;0.70;;;25.00;41.20;;;;;;4995129;28;20112;-66
2022/04/16 00:10:53;;;;;;;1.90;0.60;;;25.10;41.30;;;;;;4993656;28;20213;-66
2022/04/16 00:13:19;;;;;;;1.02;0.70;;;25.00;41.30;;;;;;4989884;28;20053;-66
2022/04/16 00:15:49;;;;;;;1.23;0.68;;;25.00;41.30;;;;;;4992401;28;20044;-65
2022/04/16 00:18:15;;;;;;;0.88;0.60;;;25.00;41.30;;;;;;4991291;28;20104;-66
2022/04/16 00:20:42;;;;;;;1.08;0.70;;;24.90;41.30;;;;;;4994537;28;20030;-66
2022/04/16 00:23:08;;;;;;;0.88;0.60;;;24.90;41.30;;;;;;4990109;28;20037;-66
2022/04/16 00:25:35;;;;;;;1.10;0.70;;;24.90;41.30;;;;;;4991216;28;20438;-66
2022/04/16 00:28:01;;;;;;;1.08;0.70;;;24.90;41.30;;;;;;4995713;28;20087;-65
2022/04/16 00:30:27;;;;;;;0.68;0.52;;;24.80;41.30;;;;;;4995057;28;20637;-65
2022/04/16 00:32:55;;;;;;;1.50;0.70;;;24.80;41.30;;;;;;4993391;28;20053;-66
2022/04/16 00:35:22;;;;;;;1.42;0.70;;;24.80;41.30;;;;;;4994098;28;20061;-65
2022/04/16 00:37:49;;;;;;;1.15;0.60;;;24.80;41.30;;;;;;4993433;28;20087;-65
2022/04/16 00:40:14;;;;;;;0.82;0.70;;;24.80;41.30;;;;;;4996157;28;20038;-65
2022/04/16 00:42:44;;;;;;;0.60;0.60;;;24.80;41.40;;;;;;4995369;28;20402;-65
2022/04/16 00:45:11;;;;;;;1.15;0.60;;;24.80;41.40;;;;;;4995406;28;21657;-64
2022/04/16 00:47:36;;;;;;;1.00;0.70;;;24.70;41.30;;;;;;4992810;28;20037;-66
2022/04/16 00:50:04;;;;;;;0.85;0.52;;;24.70;41.30;;;;;;4995120;28;20032;-65
2022/04/16 00:52:30;;;;;;;0.82;0.70;;;24.70;41.40;;;;;;4993765;28;20040;-62
2022/04/16 00:54:56;;;;;;;0.70;0.65;;;24.60;41.30;;;;;;4994776;28;20026;-65
2022/04/16 00:57:25;;;;;;;0.68;0.52;;;24.70;41.40;;;;;;4995014;28;20118;-67
2022/04/16 00:59:51;;;;;;;0.80;0.50;;;24.60;41.30;;;;;;4994545;28;20468;-66
2022/04/16 01:02:17;;;;;;;0.80;0.60;;;24.60;41.30;;;;;;4992527;28;20485;-66
2022/04/16 01:04:43;;;;;;;0.73;0.60;;;24.60;41.40;;;;;;4993400;28;20062;-66
2022/04/16 01:07:09;;;;;;;0.93;0.70;;;24.60;41.30;;;;;;4989390;28;20376;-67
2022/04/16 01:09:35;;;;;;;0.57;0.50;;;24.60;41.50;;;;;;4994060;28;20471;-64
2022/04/16 01:12:01;;;;;;;0.68;0.60;;;24.50;41.40;;;;;;4993333;28;20064;-65
2022/04/16 01:14:29;;;;;;;0.47;0.47;;;24.50;41.30;;;;;;4991422;28;20676;-66
2022/04/16 01:16:57;;;;;;;0.65;0.50;;;24.50;41.40;;;;;;4995142;28;20061;-65
2022/04/16 01:19:25;;;;;;;0.85;0.60;;;24.40;41.40;;;;;;5000711;28;20121;-66
2022/04/16 01:21:51;;;;;;;1.33;0.60;;;24.50;41.40;;;;;;5000036;28;20061;-65
2022/04/16 01:24:17;;;;;;;0.90;0.65;;;24.40;41.50;;;;;;5000906;28;20062;-63
2022/04/16 01:26:43;;;;;;;1.10;0.57;;;24.40;41.50;;;;;;5001741;28;20040;-63
2022/04/16 01:29:10;;;;;;;0.60;0.55;;;24.40;41.60;;;;;;5001745;28;20385;-66
2022/04/16 01:31:35;;;;;;;2.35;1.10;;;24.30;41.50;;;;;;5000400;28;20108;-65
2022/04/16 01:34:03;;;;;;;0.50;0.50;;;24.30;41.60;;;;;;4999980;28;20021;-65
2022/04/16 01:36:30;;;;;;;0.82;0.68;;;24.30;41.50;;;;;;5000354;28;20065;-63
2022/04/16 01:38:57;;;;;;;0.52;0.52;;;24.30;41.60;;;;;;5000729;28;20376;-62
2022/04/16 01:41:24;;;;;;;0.57;0.57;;;24.20;41.60;;;;;;4999952;28;20397;-62
2022/04/16 01:43:50;;;;;;;0.63;0.55;;;24.20;41.60;;;;;;4998328;28;20190;-66
2022/04/16 01:46:15;;;;;;;0.60;0.50;;;24.20;41.60;;;;;;4997729;28;20453;-65
2022/04/16 01:48:42;;;;;;;0.80;0.60;;;24.20;41.70;;;;;;4997877;28;20041;-66
2022/04/16 01:51:08;;;;;;;0.50;0.50;;;24.10;41.70;;;;;;4997867;28;20492;-66
2022/04/16 01:53:35;;;;;;;0.60;0.50;;;24.10;41.70;;;;;;5000583;28;20470;-63
2022/04/16 01:56:00;;;;;;;1.00;0.60;;;24.10;41.70;;;;;;4999155;28;20034;-63
2022/04/16 01:58:26;;;;;;;0.90;0.60;;;24.10;41.70;;;;;;4996396;28;20041;-65
2022/04/16 02:00:52;;;;;;;0.85;0.60;;;24.10;41.80;;;;;;4997021;28;20053;-66
2022/04/16 02:03:20;;;;;;;1.48;0.60;;;24.10;41.80;;;;;;4994014;28;20053;-66
2022/04/16 02:05:45;;;;;;;0.60;0.60;;;24.00;41.70;;;;;;4997716;28;20504;-66
2022/04/16 02:08:12;;;;;;;0.70;0.60;;;24.00;41.80;;;;;;4998766;28;20058;-66
2022/04/16 02:10:38;;;;;;;0.50;0.50;;;24.00;41.80;;;;;;4998706;28;20029;-66
2022/04/16 02:13:04;;;;;;;0.60;0.50;;;24.00;41.80;;;;;;4998338;28;20022;-61
2022/04/16 02:15:30;;;;;;;0.60;0.60;;;24.00;41.90;;;;;;4999371;28;20111;-66
2022/04/16 02:17:56;;;;;;;0.50;0.50;;;23.90;41.80;;;;;;4998442;28;20037;-66
2022/04/16 02:20:23;;;;;;;0.57;0.50;;;23.90;41.80;;;;;;4998868;28;20018;-65
2022/04/16 02:22:49;;;;;;;0.65;0.60;;;23.90;41.80;;;;;;5001485;28;20153;-62
2022/04/16 02:25:17;;;;;;;0.85;0.50;;;23.90;41.80;;;;;;4997981;28;20030;-65
2022/04/16 02:27:43;;;;;;;0.57;0.52;;;23.90;41.90;;;;;;5000136;28;20045;-66
2022/04/16 02:30:12;;;;;;;0.60;0.50;;;23.90;41.90;;;;;;4992690;28;20029;-66
2022/04/16 02:32:43;;;;;;;0.88;0.70;;;23.90;41.90;;;;;;4995068;28;20029;-65
2022/04/16 02:35:13;;;;;;;0.60;0.60;;;23.90;41.90;;;;;;4992827;28;20048;-65
2022/04/16 02:37:39;;;;;;;0.88;0.60;;;23.80;41.90;;;;;;4995346;28;20371;-64
2022/04/16 02:40:06;;;;;;;0.50;0.50;;;23.80;41.90;;;;;;4997211;28;20148;-65
2022/04/16 02:42:39;;;;;;;0.68;0.50;;;23.80;41.90;;;;;;4994434;28;20049;-61
2022/04/16 02:47:52;;;;;;;0.60;0.60;;;23.80;41.90;;;;;;4993698;28;20057;-66
2022/04/16 02:50:18;;;;;;;0.77;0.50;;;23.70;41.90;;;;;;4997056;28;20030;-66
2022/04/16 02:52:45;;;;;;;1.20;0.68;;;23.70;41.90;;;;;;4996165;28;20355;-61
2022/04/16 02:55:15;;;;;;;0.70;0.60;;;23.70;41.90;;;;;;4995226;28;20071;-64
2022/04/16 02:57:42;;;;;;;0.50;0.50;;;23.70;41.90;;;;;;4995372;28;20026;-65
2022/04/16 03:00:13;;;;;;;0.60;0.60;;;23.70;41.90;;;;;;4991997;28;20025;-62
2022/04/16 03:02:39;;;;;;;0.68;0.60;;;23.70;42.00;;;;;;4994555;28;20061;-66
2022/04/16 03:05:09;;;;;;;0.75;0.60;;;23.70;42.00;;;;;;4995551;28;20036;-66
2022/04/16 03:07:36;;;;;;;0.73;0.50;;;23.70;42.00;;;;;;4993195;28;20040;-61
2022/04/16 03:10:03;;;;;;;0.40;0.40;;;23.60;41.90;;;;;;4994957;28;20119;-66
2022/04/16 03:12:40;;;;;;;0.47;0.47;;;23.60;42.00;;;;;;4994913;28;21370;-66
2022/04/16 03:17:52;;;;;;;0.55;0.55;;;23.60;42.00;;;;;;4993691;28;20408;-65
2022/04/16 03:20:18;;;;;;;0.50;0.50;;;23.60;42.50;;;;;;5010561;28;20121;-66
2022/04/16 03:22:44;;;;;;;0.50;0.50;;;23.60;42.00;;;;;;4992638;28;20101;-65
2022/04/16 03:25:09;;;;;;;1.02;0.70;;;23.60;42.00;;;;;;4995394;28;20033;-65
2022/04/16 03:27:37;;;;;;;0.95;0.50;;;23.60;42.50;;;;;;5010654;28;20050;-66
2022/04/16 03:30:04;;;;;;;0.60;0.60;;;23.50;42.00;;;;;;4994906;28;20374;-65
2022/04/16 03:32:30;;;;;;;0.98;0.70;;;23.50;42.00;;;;;;4993037;28;21359;-65
2022/04/16 03:34:56;;;;;;;0.50;0.50;;;23.50;42.00;;;;;;4992773;28;21915;-66
2022/04/16 03:37:24;;;;;;;0.73;0.50;;;23.50;42.00;;;;;;4994427;28;20022;-65
2022/04/16 03:39:50;;;;;;;0.50;0.50;;;23.50;42.00;;;;;;4995461;28;20668;-66
2022/04/16 03:42:18;;;;;;;0.50;0.50;;;23.50;42.10;;;;;;4995486;28;20022;-65
2022/04/16 03:44:44;;;;;;;0.55;0.50;;;23.50;42.00;;;;;;5008683;28;20029;-65
2022/04/16 03:47:13;;;;;;;1.25;0.60;;;23.50;42.00;;;;;;4989985;28;20045;-65
2022/04/16 03:49:38;;;;;;;1.33;0.77;;;23.50;42.00;;;;;;4994842;28;20484;-66
2022/04/16 03:52:05;;;;;;;0.50;0.50;;;23.50;42.10;;;;;;4993938;28;20041;-64
2022/04/16 04:00:03;;;;;;;0.60;0.60;;;23.40;42.00;;;;;;4993322;28;20037;-63
2022/04/16 04:02:30;;;;;;;0.60;0.60;;;23.40;42.10;;;;;;4990789;28;20041;-66
2022/04/16 04:04:57;;;;;;;0.50;0.50;;;23.40;42.10;;;;;;4994172;28;20038;-65
2022/04/16 04:07:23;;;;;;;0.68;0.68;;;23.40;42.10;;;;;;4994548;28;20034;-66
2022/04/16 04:09:49;;;;;;;0.60;0.60;;;23.40;42.10;;;;;;4991842;28;20034;-65
2022/04/16 04:12:15;;;;;;;0.55;0.55;;;23.40;42.10;;;;;;4994155;28;20109;-63
2022/04/16 04:14:44;;;;;;;0.50;0.50;;;23.30;42.10;;;;;;4992019;28;20061;-65
2022/04/16 04:17:10;;;;;;;0.50;0.50;;;23.30;42.10;;;;;;4992916;28;20172;-65
2022/04/16 04:19:38;;;;;;;0.50;0.50;;;23.30;42.10;;;;;;4991262;28;20030;-65
2022/04/16 04:22:05;;;;;;;0.82;0.60;;;23.30;42.20;;;;;;4992828;28;20030;-66
2022/04/16 04:24:31;;;;;;;0.50;0.50;;;23.30;42.10;;;;;;4992540;28;20552;-66
2022/04/16 04:26:57;;;;;;;1.13;0.60;;;23.30;42.10;;;;;;4994714;28;20034;-66
2022/04/16 04:29:23;;;;;;;0.50;0.50;;;23.30;42.10;;;;;;4995383;28;20060;-65
2022/04/16 04:31:49;;;;;;;1.23;0.50;;;23.30;42.20;;;;;;4991375;28;20695;-66
2022/04/16 04:34:14;;;;;;;0.52;0.52;;;23.30;42.20;;;;;;4990544;28;20060;-66
2022/04/16 04:36:40;;;;;;;0.50;0.50;;;23.20;42.10;;;;;;4992931;28;20066;-66
2022/04/16 04:39:05;;;;;;;0.60;0.60;;;23.20;42.20;;;;;;4993528;28;20037;-62
2022/04/16 04:41:31;;;;;;;0.50;0.50;;;23.20;42.20;;;;;;4993023;28;20061;-66
2022/04/16 04:43:57;;;;;;;1.00;0.60;;;23.20;42.20;;;;;;4992909;28;20037;-65
2022/04/16 04:46:23;;;;;;;0.60;0.50;;;23.20;42.20;;;;;;4991952;28;20034;-66
2022/04/16 04:48:48;;;;;;;0.55;0.55;;;23.20;42.20;;;;;;4992024;28;20109;-63
2022/04/16 04:51:14;;;;;;;0.50;0.50;;;23.20;42.20;;;;;;4994095;28;20117;-65
2022/04/16 04:53:39;;;;;;;0.85;0.52;;;23.20;42.20;;;;;;4993343;28;20038;-62
2022/04/16 04:56:05;;;;;;;0.73;0.60;;;23.20;42.20;;;;;;4993329;28;20081;-62
2022/04/16 04:58:31;;;;;;;0.60;0.50;;;23.20;42.30;;;;;;4993769;28;20105;-65
2022/04/16 05:00:57;;;;;;;0.45;0.45;;;23.20;42.30;;;;;;4990503;28;20144;-66
2022/04/16 05:03:23;;;;;;;0.50;0.50;;;23.20;42.30;;;;;;4990304;28;20029;-65
2022/04/16 05:05:49;;;;;;;0.47;0.47;;;23.20;42.20;;;;;;4991321;28;20479;-65
2022/04/16 05:08:14;;;;;;;0.50;0.50;;;23.20;42.30;;;;;;4994401;28;20064;-66
2022/04/16 05:10:40;;;;;;;0.50;0.50;;;23.20;42.30;;;;;;4992298;28;20307;-66
2022/04/16 05:13:06;;;;;;;0.50;0.50;;;23.20;42.30;;;;;;4994515;28;20037;-62
2022/04/16 05:15:31;;;;;;;0.57;0.57;;;23.20;42.30;;;;;;4990218;28;20112;-65
2022/04/16 05:17:57;;;;;;;0.50;0.50;;;23.20;42.30;;;;;;4990883;28;20443;-64
2022/04/16 05:20:23;;;;;;;0.63;0.60;;;23.10;42.20;;;;;;4991035;28;21156;-62
2022/04/16 05:22:48;;;;;;;0.50;0.50;;;23.10;42.20;;;;;;4984658;28;20383;-65
2022/04/16 05:25:14;;;;;;;0.50;0.50;;;23.10;42.30;;;;;;4984668;28;20485;-65
2022/04/16 05:27:40;;;;;;;0.50;0.50;;;23.10;42.30;;;;;;4989752;28;20042;-62
2022/04/16 05:30:06;;;;;;;0.50;0.50;;;23.10;42.30;;;;;;4990647;28;20092;-66
2022/04/16 05:32:40;;;;;;;0.57;0.57;;;23.10;42.30;;;;;;4990561;28;20038;-66
2022/04/16 05:35:07;;;;;;;0.50;0.50;;;23.10;42.30;;;;;;4991561;28;20030;-66
2022/04/16 05:37:34;;;;;;;0.68;0.60;;;23.10;42.30;;;;;;4981065;28;20169;-66
2022/04/16 05:39:59;;;;;;;0.40;0.40;;;23.10;42.30;;;;;;4993487;28;20030;-64
2022/04/16 05:42:25;;;;;;;0.50;0.50;;;23.10;42.30;;;;;;4993384;28;20390;-65
2022/04/16 05:44:51;;;;;;;0.60;0.60;;;23.10;42.30;;;;;;4988768;28;20127;-66
2022/04/16 05:47:16;;;;;;;0.50;0.50;;;23.10;42.30;;;;;;4991328;28;20512;-65
2022/04/16 05:49:42;;;;;;;0.60;0.60;;;23.10;42.40;;;;;;4994676;28;20030;-65
2022/04/16 05:52:09;;;;;;;0.50;0.50;;;23.00;42.30;;;;;;4992282;28;20033;-65
2022/04/16 05:54:36;;;;;;;0.80;0.60;;;23.00;42.40;;;;;;4993816;28;20049;-66
2022/04/16 05:57:02;;;;;;;0.60;0.60;;;23.00;42.30;;;;;;4993183;28;20422;-61
2022/04/16 05:59:28;;;;;;;0.60;0.60;;;23.00;42.80;;;;;;4992794;28;20040;-65
2022/04/16 06:01:53;;;;;;;0.80;0.60;;;23.00;42.40;;;;;;5004228;28;20042;-65
2022/04/16 06:04:19;;;;;;;0.60;0.60;;;23.00;42.40;;;;;;4994953;28;20319;-62
2022/04/16 06:06:46;;;;;;;0.50;0.50;;;23.00;42.40;;;;;;4994385;28;20045;-65
2022/04/16 06:09:12;;;;;;;0.60;0.60;;;23.00;42.40;;;;;;4996243;28;20080;-65
2022/04/16 06:11:38;;;;;;;0.50;0.50;;;23.00;42.40;;;;;;4994430;28;20042;-65
2022/04/16 06:14:03;;;;;;;0.65;0.65;;;23.00;42.40;;;;;;4984851;28;20029;-65
2022/04/16 06:16:30;;;;;;;0.47;0.47;;;23.00;42.40;;;;;;4991164;28;20024;-65
2022/04/16 06:18:55;;;;;;;0.50;0.50;;;22.90;42.40;;;;;;4989411;28;20490;-62
2022/04/16 06:21:21;;;;;;;0.50;0.50;;;22.90;42.40;;;;;;4995158;28;20025;-65
2022/04/16 06:23:46;;;;;;;0.60;0.60;;;22.90;42.40;;;;;;4992666;28;20455;-65
2022/04/16 06:26:12;;;;;;;0.52;0.52;;;23.00;42.40;;;;;;4994893;28;20057;-65
2022/04/16 06:28:38;;;;;;;0.68;0.65;;;22.90;42.40;;;;;;4994184;28;20034;-64
2022/04/16 06:31:03;;;;;;;0.50;0.50;;;22.90;42.40;;;;;;4995474;28;20064;-65
2022/04/16 06:33:29;;;;;;;0.77;0.60;;;22.90;42.40;;;;;;4995276;28;20117;-61
2022/04/16 06:35:54;;;;;;;0.60;0.60;;;22.90;42.40;;;;;;4995677;28;20024;-65
2022/04/16 06:38:20;;;;;;;0.52;0.52;;;22.90;42.40;;;;;;4994267;28;20037;-65
2022/04/16 06:40:45;;;;;;;0.70;0.55;;;22.90;42.50;;;;;;4996222;28;20401;-64
2022/04/16 06:43:11;;;;;;;0.55;0.55;;;22.90;42.50;;;;;;4994249;28;20030;-62
2022/04/16 06:45:38;;;;;;;0.52;0.50;;;22.90;42.50;;;;;;4993370;28;20053;-61
2022/04/16 06:48:04;;;;;;;0.60;0.50;;;22.90;43.10;;;;;;4995075;28;20029;-62
2022/04/16 06:50:29;;;;;;;0.60;0.52;;;22.90;42.50;;;;;;4994911;28;20051;-65
2022/04/16 06:52:56;;;;;;;1.15;0.70;;;22.90;42.50;;;;;;4996717;28;20033;-62
2022/04/16 06:55:21;;;;;;;1.25;0.70;;;22.90;42.50;;;;;;4991614;28;20069;-64
2022/04/16 06:57:47;;;;;;;1.05;0.60;;;22.90;42.60;;;;;;4994747;28;20045;-64
2022/04/16 07:00:13;;;;;;;0.68;0.68;;;22.90;42.60;;;;;;4997380;28;20049;-66
2022/04/16 07:02:39;;;;;;;0.60;0.60;;;22.80;42.50;;;;;;4989805;28;20527;-65
2022/04/16 07:05:07;;;;;;;0.70;0.60;;;22.90;42.60;;;;;;4993450;28;20584;-64
2022/04/16 07:07:33;;;;;;;0.77;0.60;;;22.90;42.60;;;;;;4990534;28;20478;-65
2022/04/16 07:09:59;;;;;;;0.98;0.60;;;22.80;42.50;;;;;;4993083;28;20049;-63
2022/04/16 07:12:25;;;;;;;0.65;0.60;;;22.90;42.60;;;;;;4997221;28;20030;-65
2022/04/16 07:14:50;;;;;;;0.55;0.55;;;22.80;42.50;;;;;;4989292;28;20626;-65
2022/04/16 07:17:16;;;;;;;0.80;0.60;;;22.80;42.60;;;;;;4992166;28;20033;-64
2022/04/16 07:19:42;;;;;;;0.60;0.60;;;22.80;42.60;;;;;;4987025;28;20026;-65
2022/04/16 07:22:07;;;;;;;0.90;0.60;;;22.90;42.70;;;;;;4988947;28;20172;-64
2022/04/16 07:24:37;;;;;;;0.50;0.50;;;22.80;42.60;;;;;;4997335;28;20600;-64
2022/04/16 07:27:04;;;;;;;1.08;0.60;;;22.80;42.60;;;;;;4996105;28;20471;-64
2022/04/16 07:29:30;;;;;;;1.30;0.57;;;22.80;42.60;;;;;;4994219;28;20137;-65
2022/04/16 07:31:56;;;;;;;0.60;0.60;;;22.80;42.60;;;;;;4993356;28;20197;-63
2022/04/16 07:34:22;;;;;;;0.55;0.50;;;22.80;42.60;;;;;;4993317;28;20182;-64
2022/04/16 07:36:48;;;;;;;0.70;0.70;;;22.80;42.60;;;;;;4993728;28;20418;-64
2022/04/16 07:39:14;;;;;;;0.60;0.60;;;22.80;42.60;;;;;;4995689;28;20133;-63
2022/04/16 07:41:40;;;;;;;0.60;0.60;;;22.80;42.60;;;;;;4993007;28;20062;-62
2022/04/16 07:44:06;;;;;;;0.77;0.60;;;22.80;42.70;;;;;;4986889;28;20037;-64
2022/04/16 07:46:33;;;;;;;0.65;0.60;;;22.80;42.60;;;;;;4993056;28;20044;-62
2022/04/16 07:48:59;;;;;;;1.88;0.70;;;22.80;42.70;;;;;;4991429;28;20049;-64
2022/04/16 07:51:26;;;;;;;2.13;0.50;;;22.80;42.70;;;;;;4992622;28;20038;-61
2022/04/16 07:53:53;;;;;;;0.88;0.70;;;22.80;42.70;;;;;;4990389;28;20049;-65
2022/04/16 07:56:19;;;;;;;0.60;0.60;;;22.80;42.70;;;;;;4990196;28;20022;-64
2022/04/16 07:58:44;;;;;;;0.60;0.60;;;22.80;42.70;;;;;;4990896;28;20033;-64
2022/04/16 08:01:10;;;;;;;1.40;0.70;;;22.80;42.70;;;;;;4990870;28;20049;-64
2022/04/16 08:03:35;;;;;;;0.60;0.60;;;22.80;42.70;;;;;;4987876;28;20114;-65
2022/04/16 08:06:01;;;;;;;0.88;0.68;;;22.80;42.80;;;;;;4992096;28;20033;-65
2022/04/16 08:08:27;;;;;;;1.38;0.70;;;22.80;42.70;;;;;;4990353;28;20022;-66
2022/04/16 08:10:53;;;;;;;0.95;0.70;;;22.80;42.70;;;;;;4991137;28;20204;-63
2022/04/16 08:13:19;;;;;;;1.63;0.70;;;22.80;42.70;;;;;;4989484;28;20040;-62
2022/04/16 08:15:46;;;;;;;0.90;0.70;;;22.80;42.70;;;;;;4991704;28;20084;-64
2022/04/16 08:18:12;;;;;;;0.60;0.60;;;22.80;42.70;;;;;;4990324;28;20034;-64
2022/04/16 08:20:38;;;;;;;0.70;0.70;;;22.80;42.80;;;;;;4991712;28;20087;-61
2022/04/16 08:23:06;;;;;;;0.75;0.60;;;22.80;42.70;;;;;;4990357;28;20013;-64
2022/04/16 08:28:01;;;;;;;0.60;0.60;;;22.80;42.80;;;;;;4989336;28;20037;-65
2022/04/16 08:30:28;;;;;;;0.80;0.70;;;22.80;42.80;;;;;;4989912;28;20659;-65
2022/04/16 08:32:54;;;;;;;0.63;0.60;;;22.80;42.80;;;;;;4990100;28;20140;-65
2022/04/16 08:35:20;;;;;;;0.73;0.63;;;22.80;42.70;;;;;;4985791;28;20057;-64
2022/04/16 08:37:47;;;;;;;2.45;0.70;;;22.80;42.70;;;;;;4986578;28;20085;-65
2022/04/16 08:40:14;;;;;;;0.60;0.60;;;22.80;42.70;;;;;;4993932;28;20030;-65
2022/04/16 08:42:42;;;;;;;1.17;0.70;;;22.80;42.70;;;;;;4994879;28;20052;-65
2022/04/16 08:45:10;;;;;;;1.33;0.63;;;22.80;42.70;;;;;;4994819;28;20050;-64
2022/04/16 08:47:38;;;;;;;0.93;0.70;;;22.80;42.70;;;;;;4986588;28;20033;-62
2022/04/16 08:50:06;;;;;;;0.90;0.70;;;22.80;42.80;;;;;;4998928;28;20793;-63
2022/04/16 08:52:34;;;;;;;0.80;0.70;;;22.80;43.00;;;;;;4999542;28;20084;-63
2022/04/16 08:55:01;;;;;;;0.60;0.60;;;22.80;43.00;;;;;;4998462;28;20109;-64
2022/04/16 08:57:27;;;;;;;1.65;0.60;;;22.90;43.00;;;;;;4995894;28;20474;-60
2022/04/16 08:59:54;;;;;;;0.75;0.50;;;22.90;43.00;;;;;;4986539;28;20080;-64
2022/04/16 09:02:21;;;;;;;1.25;0.80;;;22.90;43.00;;;;;;4983215;28;20634;-63
2022/04/16 09:04:48;;;;;;;0.93;0.63;;;23.00;43.00;;;;;;4982639;28;20041;-64
2022/04/16 09:07:14;;;;;;;0.68;0.60;;;23.00;43.10;;;;;;4983156;28;20496;-65
2022/04/16 09:09:40;;;;;;;0.60;0.60;;;23.00;43.10;;;;;;4985283;28;20152;-64
2022/04/16 09:12:26;;;;;;;0.73;0.60;;;23.00;43.20;;;;;;4982827;28;20081;-64
2022/04/16 09:14:52;;;;;;;1.25;0.70;;;23.00;43.10;;;;;;4988716;28;20038;-64
2022/04/16 09:17:18;;;;;;;0.85;0.70;;;23.00;43.10;;;;;;4981972;28;20120;-66
2022/04/16 09:19:54;;;;;;;1.15;0.70;;;23.00;43.00;;;;;;4982703;28;20034;-64
2022/04/16 09:22:33;;;;;;;0.90;0.70;;;23.00;42.90;;;;;;4987023;28;21011;-64
2022/04/16 09:24:58;;;;;;;1.20;0.80;;;23.10;42.80;;;;;;4983299;28;20038;-63
2022/04/16 09:27:24;;;;;;;2.13;0.80;;;23.10;42.70;;;;;;4984496;28;20033;-65
2022/04/16 09:29:51;;;;;;;0.95;0.70;;;23.10;42.80;;;;;;4985931;28;20546;-65
2022/04/16 09:32:24;;;;;;;1.02;0.70;;;23.10;42.80;;;;;;4982422;28;20108;-61
2022/04/16 09:34:53;;;;;;;1.88;0.80;;;23.20;42.80;;;;;;4985469;28;20065;-65
2022/04/16 09:37:21;;;;;;;1.35;0.73;;;23.20;42.70;;;;;;4985004;28;20033;-64
2022/04/16 09:39:47;;;;;;;1.30;0.77;;;23.30;42.70;;;;;;4992249;28;20183;-65
2022/04/16 09:42:23;;;;;;;3.60;1.02;;;23.30;42.80;;;;;;4989438;28;20057;-65
2022/04/16 09:44:48;;;;;;;3.22;0.85;;;23.30;42.80;;;;;;4990958;28;20449;-66
2022/04/16 09:47:14;;;;;;;1.08;0.77;;;23.40;42.90;;;;;;4987560;28;20042;-65
2022/04/16 09:49:41;;;;;;;2.30;0.80;;;23.30;42.80;;;;;;4984428;28;20030;-65
2022/04/16 09:52:07;;;;;;;1.17;0.73;;;23.40;42.80;;;;;;4989945;28;20045;-65
2022/04/16 09:54:34;;;;;;;2.72;0.80;;;23.40;42.80;;;;;;4989720;28;20084;-63
2022/04/16 09:57:01;;;;;;;4.13;0.88;;;23.40;42.90;;;;;;4987868;28;20038;-65
2022/04/16 09:59:34;;;;;;;3.08;0.90;;;23.40;43.00;;;;;;4990238;28;20382;-64
2022/04/16 10:02:02;;;;;;;2.75;0.95;;;23.40;42.90;;;;;;4984827;28;20038;-64
2022/04/16 10:04:29;;;;;;;1.92;0.90;;;23.50;43.00;;;;;;4985365;28;20045;-66
2022/04/16 10:06:55;;;;;;;3.30;0.90;;;23.50;43.00;;;;;;4986293;28;20045;-65
2022/04/16 10:09:22;;;;;;;2.53;0.93;;;23.50;43.00;;;;;;4986084;28;20482;-62
2022/04/16 10:14:56;;;;;;;4.13;0.90;;;23.50;43.00;;;;;;4984570;28;20077;-65
2022/04/16 10:17:35;;;;;;;1.35;0.77;;;23.50;43.00;;;;;;4982576;28;20112;-65
2022/04/16 10:20:12;;;;;;;2.20;0.90;;;23.50;42.80;;;;;;4980844;28;20482;-65
2022/04/16 10:22:38;;;;;;;2.10;0.80;;;23.60;42.90;;;;;;4987483;28;20057;-65
2022/04/16 10:25:05;;;;;;;1.25;0.80;;;23.50;42.80;;;;;;4986045;28;20041;-64
2022/04/16 10:27:32;;;;;;;2.35;0.80;;;23.60;42.80;;;;;;4989328;28;20418;-63
2022/04/16 10:30:09;;;;;;;1.80;0.80;;;23.60;43.20;;;;;;4991187;28;20380;-64
2022/04/16 10:32:43;;;;;;;2.17;0.88;;;23.60;42.60;;;;;;4986431;28;20625;-64
2022/04/16 10:35:13;;;;;;;2.00;1.00;;;23.60;42.50;;;;;;4985464;28;20132;-63
2022/04/16 10:37:41;;;;;;;3.75;1.00;;;23.60;42.50;;;;;;4984877;28;20026;-65
2022/04/16 10:40:16;;;;;;;2.22;0.80;;;23.60;42.50;;;;;;4992218;28;20135;-64
2022/04/16 10:42:48;;;;;;;1.70;0.77;;;23.60;42.50;;;;;;4988466;28;20048;-66
2022/04/16 10:45:14;;;;;;;1.40;0.90;;;23.60;42.40;;;;;;4990864;28;20037;-65
2022/04/16 10:47:41;;;;;;;1.60;0.90;;;23.60;42.40;;;;;;4999294;28;20041;-65
2022/04/16 10:50:15;;;;;;;1.90;0.90;;;23.70;42.40;;;;;;4999679;28;20124;-64
2022/04/16 10:52:58;;;;;;;2.28;1.00;;;23.70;42.40;;;;;;4999591;28;20065;-65
2022/04/16 10:55:30;;;;;;;3.00;1.00;;;23.70;42.40;;;;;;4996240;28;20108;-65
2022/04/16 10:58:04;;;;;;;1.95;0.93;;;23.70;42.40;;;;;;4991506;28;20025;-63
2022/04/16 11:00:44;;;;;;;2.17;0.90;;;23.70;42.40;;;;;;4994544;28;20041;-64
2022/04/16 11:03:28;;;;;;;2.15;1.00;;;23.70;42.30;;;;;;4997227;28;20029;-64
2022/04/16 11:06:03;;;;;;;2.20;0.95;;;23.80;42.50;;;;;;4997339;28;20094;-63
2022/04/16 11:08:29;;;;;;;2.42;0.90;;;23.80;42.30;;;;;;4994457;28;20026;-65
2022/04/16 11:11:02;;;;;;;2.28;1.00;;;23.80;42.20;;;;;;4999558;28;20034;-64
2022/04/16 11:13:30;;;;;;;1.67;0.98;;;23.80;42.10;;;;;;4996430;28;21045;-64
2022/04/16 11:15:58;;;;;;;2.25;1.20;;;23.80;41.90;;;;;;4993073;28;20110;-64
2022/04/16 11:18:25;;;;;;;1.65;1.00;;;23.80;41.90;;;;;;4991185;28;20034;-64
2022/04/16 11:20:57;;;;;;;2.28;0.75;;;23.80;41.80;;;;;;5000578;28;20037;-64
2022/04/16 11:23:27;;;;;;;1.73;1.00;;;23.80;41.70;;;;;;5002195;28;20406;-65
2022/04/16 11:34:14;;;;;;;2.38;1.00;;;23.90;41.50;;;;;;4995604;28;19933;-64
2022/04/16 11:36:40;;;;;;;2.08;1.00;;;23.90;41.50;;;;;;4992010;28;20041;-65
2022/04/16 11:39:15;;;;;;;2.08;1.00;;;23.90;41.50;;;;;;4992843;28;20443;-64
2022/04/16 11:41:55;;;;;;;2.22;1.10;;;23.90;41.40;;;;;;4998114;28;20053;-65
2022/04/16 11:44:38;;;;;;;1.27;0.90;;;23.90;41.30;;;;;;4993808;28;20116;-64
2022/04/16 11:47:15;;;;;;;2.47;1.10;;;23.90;41.30;;;;;;4987185;28;20153;-65
2022/04/16 11:49:43;;;;;;;1.88;1.10;;;23.90;41.20;;;;;;4994682;28;20026;-64
2022/04/16 11:52:10;;;;;;;2.33;1.10;;;23.90;41.10;;;;;;4999664;28;20048;-64
2022/04/16 11:54:36;;;;;;;2.53;1.10;;;23.90;41.10;;;;;;5004378;28;20473;-64
2022/04/16 11:57:02;;;;;;;1.52;0.98;;;23.90;41.10;;;;;;5006171;28;20160;-65
2022/04/16 11:59:29;;;;;;;1.75;1.00;;;23.90;41.10;;;;;;5004499;28;20160;-64
2022/04/16 12:02:07;;;;;;;2.63;1.00;;;23.90;41.00;;;;;;4993312;28;20477;-64
2022/04/16 12:04:43;;;;;;;1.80;1.02;;;23.90;40.90;;;;;;4984302;28;20120;-64
2022/04/16 12:07:13;;;;;;;3.47;1.10;;;23.90;40.90;;;;;;5016693;28;20080;-65
2022/04/16 12:09:44;;;;;;;1.45;1.10;;;23.90;40.90;;;;;;4984548;28;20084;-65
2022/04/16 12:12:13;;;;;;;1.50;1.10;;;24.00;40.90;;;;;;4985642;28;20120;-65
2022/04/16 12:15:06;;;;;;;1.75;1.00;;;24.00;40.80;;;;;;4984705;28;20037;-61
2022/04/16 12:17:31;;;;;;;1.50;1.00;;;24.00;41.30;;;;;;4985587;28;20124;-65
2022/04/16 12:20:00;;;;;;;2.05;1.10;;;24.00;40.80;;;;;;4978144;28;20761;-65
2022/04/16 12:22:25;;;;;;;1.55;0.90;;;24.00;40.80;;;;;;4982525;28;20246;-65
2022/04/16 12:24:51;;;;;;;2.05;1.20;;;24.10;40.70;;;;;;4985594;28;20108;-65
2022/04/16 12:27:29;;;;;;;2.08;1.13;;;24.10;40.70;;;;;;4982109;28;20038;-61
2022/04/16 12:29:55;;;;;;;2.33;1.20;;;24.10;40.60;;;;;;4988972;28;20033;-61
2022/04/16 12:32:28;;;;;;;1.60;1.10;;;24.10;40.60;;;;;;4985729;28;20758;-64
2022/04/16 12:34:54;;;;;;;2.47;1.50;;;24.10;40.50;;;;;;4985244;28;20033;-63
2022/04/16 12:37:21;;;;;;;1.60;1.00;;;24.10;40.50;;;;;;4984438;28;20041;-64
2022/04/16 12:39:48;;;;;;;2.00;1.30;;;24.10;40.40;;;;;;4984463;28;20140;-62
2022/04/16 12:42:14;;;;;;;2.00;1.30;;;24.10;40.40;;;;;;4980196;28;20022;-63
2022/04/16 12:44:40;;;;;;;2.25;1.25;;;24.10;40.50;;;;;;4984471;28;20108;-63
2022/04/16 12:47:06;;;;;;;2.22;1.17;;;24.20;40.40;;;;;;4982502;28;20038;-62
2022/04/16 12:49:31;;;;;;;2.53;1.33;;;24.20;40.40;;;;;;4984707;28;20037;-64
2022/04/16 12:51:58;;;;;;;2.85;1.33;;;24.20;40.50;;;;;;4982294;28;20033;-66
2022/04/16 12:54:24;;;;;;;1.15;0.90;;;24.20;40.30;;;;;;4984415;28;20859;-64
2022/04/16 12:56:50;;;;;;;1.23;1.00;;;24.30;40.30;;;;;;4983088;28;20045;-65
2022/04/16 12:59:15;;;;;;;3.13;1.10;;;24.20;40.20;;;;;;4985274;28;20508;-64
2022/04/16 13:01:41;;;;;;;2.30;1.20;;;24.20;40.20;;;;;;4986105;28;20126;-64
2022/04/16 13:04:07;;;;;;;1.60;1.00;;;24.30;40.20;;;;;;4985121;28;20061;-65
2022/04/16 13:06:33;;;;;;;1.98;1.15;;;24.30;40.20;;;;;;4986891;28;20065;-64
2022/04/16 13:09:02;;;;;;;1.73;1.20;;;24.30;40.30;;;;;;4988224;28;20712;-64
2022/04/16 13:11:28;;;;;;;;;;;24.30;40.10;;;;;;4988248;28;20096;-65
2022/04/16 13:13:54;;;;;;;1.90;1.00;;;24.30;40.70;;;;;;4987300;28;20375;-65